Cleardale, Canada
Current Conditions -  °F | °C
As of 5:00 AM on Sunday 23 Nov 2014 (Local Time) from CYXJ Reporting Station
Scattered Clouds Scattered Clouds  
Wind Chill: -11°   Ceiling: Unl
Heat Index:   Visibility: 15mi
Dew Point: -4°   Wind: 7mph
Humidity: 78%   Direction: 120°ESE
Pressure: 29.64"   Gusts: NA
Location:  56.33°N, 119.58°W
Report Text: CYXJ 231200Z 12006KT 15SM FEW140 SCT240 M17/M20 A2964 RMK AC2CI2 SLP097
Loading
Personal Weather Stations






























Interactive Weather Map New forecast layout! Learn more

10-Day Weather Forecast

Advertisements
Track Severe Weather on mobile